createdAt,value
2018-11-06T00:01:22.047Z,40.30
2018-11-06T00:03:54.962Z,39.03
2018-11-06T00:06:22.147Z,38.73
2018-11-06T00:08:49.294Z,36.60
2018-11-06T00:11:16.452Z,41.70
2018-11-06T00:13:43.593Z,36.37
2018-11-06T00:16:10.754Z,37.67
2018-11-06T00:18:37.905Z,41.67
2018-11-06T00:21:05.339Z,34.70
2018-11-06T00:23:32.511Z,32.70
2018-11-06T00:25:59.665Z,38.67
2018-11-06T00:28:26.859Z,37.30
2018-11-06T00:30:54.034Z,37.43
2018-11-06T00:33:21.206Z,39.00
2018-11-06T00:35:48.381Z,35.90
2018-11-06T00:38:15.567Z,38.07
2018-11-06T00:40:42.716Z,37.73
2018-11-06T00:43:09.864Z,39.07
2018-11-06T00:45:37.014Z,43.70
2018-11-06T00:48:04.739Z,43.23
2018-11-06T00:50:31.928Z,42.47
2018-11-06T00:52:59.087Z,46.47
2018-11-06T00:55:26.243Z,46.00
2018-11-06T00:57:53.435Z,41.33
2018-11-06T01:00:20.615Z,39.00
2018-11-06T01:02:48.194Z,37.93
2018-11-06T01:05:16.156Z,36.73
2018-11-06T01:07:44.327Z,39.27
2018-11-06T01:10:11.508Z,37.53
2018-11-06T01:12:39.067Z,40.13
2018-11-06T01:15:07.825Z,33.77
2018-11-06T01:17:35.180Z,38.47
2018-11-06T01:20:02.382Z,34.20
2018-11-06T01:22:30.424Z,40.40
2018-11-06T01:24:58.516Z,38.20
2018-11-06T01:27:25.857Z,37.10
2018-11-06T01:29:53.045Z,44.07
2018-11-06T01:32:20.203Z,40.17
2018-11-06T01:34:47.642Z,35.97
2018-11-06T01:37:14.787Z,40.87
2018-11-06T01:39:41.906Z,36.63
2018-11-06T01:42:09.030Z,33.87
2018-11-06T01:44:36.199Z,33.73
2018-11-06T01:47:03.362Z,35.00
2018-11-06T01:49:30.606Z,35.37
2018-11-06T01:51:57.763Z,41.07
2018-11-06T01:54:24.897Z,36.63
2018-11-06T01:56:52.046Z,38.70
2018-11-06T01:59:19.207Z,39.57
2018-11-06T02:01:46.387Z,43.10
2018-11-06T02:04:13.566Z,40.50
2018-11-06T02:06:40.730Z,45.33
2018-11-06T02:09:08.848Z,41.50
2018-11-06T02:11:36.049Z,47.40
2018-11-06T02:14:03.658Z,40.80
2018-11-06T02:16:30.823Z,38.80
2018-11-06T02:18:57.974Z,37.20
2018-11-06T02:21:25.156Z,37.77
2018-11-06T02:23:52.321Z,41.17
2018-11-06T02:26:19.471Z,36.90
2018-11-06T02:28:46.643Z,41.60
2018-11-06T02:31:14.015Z,37.27
2018-11-06T02:33:41.198Z,37.23
2018-11-06T02:36:08.539Z,31.77
2018-11-06T02:38:35.719Z,37.50
2018-11-06T02:41:02.901Z,37.67
2018-11-06T02:43:30.059Z,40.47
2018-11-06T02:45:57.239Z,40.23
2018-11-06T02:48:24.392Z,38.70
2018-11-06T02:50:51.551Z,34.63
2018-11-06T02:53:18.683Z,35.40
2018-11-06T02:55:45.854Z,35.70
2018-11-06T02:58:12.981Z,36.33
2018-11-06T03:00:40.142Z,34.73
2018-11-06T03:03:07.326Z,35.37
2018-11-06T03:05:34.472Z,29.80
2018-11-06T03:08:01.624Z,32.70
2018-11-06T03:10:28.834Z,33.13
2018-11-06T03:12:55.959Z,34.10
2018-11-06T03:15:23.145Z,33.73
2018-11-06T03:17:50.295Z,41.27
2018-11-06T03:20:17.444Z,39.60
2018-11-06T03:22:45.038Z,34.43
2018-11-06T03:25:12.355Z,33.30
2018-11-06T03:27:39.544Z,32.70
2018-11-06T03:30:08.804Z,35.10
2018-11-06T03:32:36.356Z,37.93
2018-11-06T03:35:04.013Z,36.80
2018-11-06T03:37:31.164Z,34.47
2018-11-06T03:39:58.296Z,35.33
2018-11-06T03:42:25.475Z,32.63
2018-11-06T03:44:52.623Z,36.83
2018-11-06T03:47:19.794Z,36.90
2018-11-06T03:49:46.987Z,34.87
2018-11-06T03:52:14.143Z,36.27
2018-11-06T03:54:41.292Z,33.27
2018-11-06T03:57:08.454Z,38.23
2018-11-06T03:59:35.608Z,42.10
2018-11-06T04:02:02.799Z,43.27
2018-11-06T04:04:29.939Z,33.83
2018-11-06T04:06:57.127Z,35.47
2018-11-06T04:09:24.271Z,32.30
2018-11-06T04:11:51.431Z,30.53
2018-11-06T04:14:18.583Z,33.83
2018-11-06T04:16:45.735Z,32.50
2018-11-06T04:19:12.907Z,34.00
2018-11-06T04:21:40.528Z,36.33
2018-11-06T04:24:09.916Z,34.37
2018-11-06T04:26:37.563Z,32.77
2018-11-06T04:29:05.555Z,36.73
2018-11-06T04:31:33.008Z,30.23
2018-11-06T04:34:00.392Z,34.67
2018-11-06T04:36:28.136Z,35.00
2018-11-06T04:38:55.579Z,31.37
2018-11-06T04:41:22.939Z,30.33
2018-11-06T04:43:50.503Z,40.37
2018-11-06T04:46:17.652Z,35.87
2018-11-06T04:48:44.822Z,35.07
2018-11-06T04:51:12.064Z,34.67
2018-11-06T04:53:39.203Z,36.20
2018-11-06T04:56:06.379Z,33.50
2018-11-06T04:58:33.620Z,37.67
2018-11-06T05:01:01.164Z,33.10
2018-11-06T05:03:28.335Z,39.30
2018-11-06T05:05:55.505Z,29.87
2018-11-06T05:08:22.646Z,34.10
2018-11-06T05:10:49.804Z,31.47
2018-11-06T05:13:16.956Z,31.77
2018-11-06T05:15:44.121Z,32.67
2018-11-06T05:18:11.288Z,34.00
2018-11-06T05:20:38.455Z,29.43
2018-11-06T05:23:05.639Z,37.23
2018-11-06T05:25:32.972Z,25.83
2018-11-06T05:27:59.954Z,24.57
2018-11-06T05:30:27.115Z,32.97
2018-11-06T05:32:54.362Z,27.47
2018-11-06T05:35:21.432Z,27.47
2018-11-06T05:37:48.606Z,32.93
2018-11-06T05:40:27.264Z,31.53
2018-11-06T05:42:54.510Z,36.80
2018-11-06T05:45:21.706Z,33.13
2018-11-06T05:47:48.847Z,46.70
2018-11-06T05:50:16.111Z,33.53
2018-11-06T05:52:43.256Z,39.10
2018-11-06T05:55:10.447Z,32.80
2018-11-06T05:57:37.624Z,37.20
2018-11-06T06:00:05.473Z,41.37
2018-11-06T06:05:06.841Z,34.23
2018-11-06T06:07:34.092Z,37.73
2018-11-06T06:10:01.448Z,42.67
2018-11-06T06:12:28.607Z,44.30
2018-11-06T06:14:55.779Z,38.07
2018-11-06T06:17:22.978Z,42.30
2018-11-06T06:19:50.204Z,47.67
2018-11-06T06:22:17.423Z,43.97
2018-11-06T06:24:44.568Z,48.20
2018-11-06T06:27:11.707Z,36.37
2018-11-06T06:29:39.284Z,42.43
2018-11-06T06:32:06.511Z,44.50
2018-11-06T06:34:33.736Z,39.27
2018-11-06T06:37:00.828Z,47.53
2018-11-06T06:39:27.960Z,38.87
2018-11-06T06:41:55.113Z,32.83
2018-11-06T06:44:22.272Z,40.30
2018-11-06T06:46:49.411Z,43.50
2018-11-06T06:49:16.587Z,39.23
2018-11-06T06:51:43.727Z,48.10
2018-11-06T06:54:11.009Z,33.43
2018-11-06T06:56:38.052Z,31.60
2018-11-06T06:59:06.488Z,34.93
2018-11-06T07:01:33.625Z,45.77
2018-11-06T07:04:00.869Z,41.37
2018-11-06T07:06:28.021Z,31.87
2018-11-06T07:08:55.150Z,38.93
2018-11-06T07:11:22.297Z,37.83
2018-11-06T07:13:49.448Z,37.07
2018-11-06T07:16:16.641Z,34.73
2018-11-06T07:18:43.860Z,41.30
2018-11-06T07:21:10.937Z,29.50
2018-11-06T07:23:38.895Z,36.17
2018-11-06T07:26:06.048Z,35.87
2018-11-06T07:28:33.480Z,33.67
2018-11-06T07:31:00.621Z,36.00
2018-11-06T07:33:27.835Z,30.47
2018-11-06T07:35:55.075Z,31.40
2018-11-06T07:38:22.198Z,31.43
2018-11-06T07:40:49.374Z,35.20
2018-11-06T07:43:16.555Z,34.30
2018-11-06T07:45:43.715Z,30.33
2018-11-06T07:48:10.855Z,32.27
2018-11-06T07:50:37.982Z,33.27
2018-11-06T07:53:05.164Z,29.57
2018-11-06T07:55:32.320Z,29.93
2018-11-06T07:57:59.440Z,32.73
2018-11-06T08:00:26.611Z,34.10
2018-11-06T08:02:53.771Z,33.23
2018-11-06T08:05:21.335Z,31.07
2018-11-06T08:07:49.184Z,31.20
2018-11-06T08:10:16.321Z,33.63
2018-11-06T08:12:44.720Z,29.30
2018-11-06T08:15:12.387Z,29.77
2018-11-06T08:17:40.269Z,33.43
2018-11-06T08:20:07.722Z,30.20
2018-11-06T08:22:34.899Z,29.93
2018-11-06T08:25:02.132Z,30.73
2018-11-06T08:27:29.270Z,31.30
2018-11-06T08:29:56.404Z,29.13
2018-11-06T08:32:23.899Z,28.93
2018-11-06T08:34:50.764Z,28.50
2018-11-06T08:37:17.895Z,30.37
2018-11-06T08:39:45.036Z,35.30
2018-11-06T08:42:12.201Z,29.17
2018-11-06T08:44:39.322Z,32.13
2018-11-06T08:47:06.459Z,32.47
2018-11-06T08:49:33.871Z,25.90
2018-11-06T08:52:01.008Z,32.07
2018-11-06T08:54:28.184Z,30.97
2018-11-06T08:56:55.319Z,26.43
2018-11-06T08:59:22.467Z,27.50
2018-11-06T09:01:49.621Z,29.67
2018-11-06T09:04:16.776Z,33.90
2018-11-06T09:06:43.948Z,43.27
2018-11-06T09:09:11.147Z,41.27
2018-11-06T09:11:38.588Z,35.87
2018-11-06T09:14:05.779Z,38.83
2018-11-06T09:16:32.914Z,32.30
2018-11-06T09:19:00.055Z,33.73
2018-11-06T09:21:27.223Z,41.93
2018-11-06T09:23:54.376Z,31.93
2018-11-06T09:26:21.535Z,34.33
2018-11-06T09:28:48.709Z,34.23
2018-11-06T09:31:15.856Z,35.17
2018-11-06T09:33:43.000Z,30.23
2018-11-06T09:36:10.309Z,32.70
2018-11-06T09:38:37.505Z,32.57
2018-11-06T09:41:04.988Z,36.90
2018-11-06T09:43:32.090Z,35.03
2018-11-06T09:45:59.282Z,34.40
2018-11-06T09:48:26.448Z,30.33
2018-11-06T09:50:53.684Z,34.33
2018-11-06T09:53:20.856Z,40.83
2018-11-06T09:55:48.031Z,36.03
2018-11-06T09:58:15.247Z,35.00
2018-11-06T10:00:42.404Z,39.80
2018-11-06T10:03:09.547Z,42.87
2018-11-06T10:05:36.720Z,45.60
2018-11-06T10:08:03.903Z,48.03
2018-11-06T10:10:31.067Z,32.37
2018-11-06T10:12:58.220Z,34.67
2018-11-06T10:15:25.366Z,33.37
2018-11-06T10:17:59.308Z,31.60
2018-11-06T10:20:26.509Z,26.40
2018-11-06T10:22:53.660Z,37.53
2018-11-06T10:25:20.837Z,33.57
2018-11-06T10:27:47.987Z,27.37
2018-11-06T10:30:16.448Z,31.93
2018-11-06T10:32:43.652Z,33.50
2018-11-06T10:35:11.236Z,32.10
2018-11-06T10:37:38.445Z,33.40
2018-11-06T10:40:09.132Z,38.67
2018-11-06T10:42:36.334Z,36.83
2018-11-06T10:45:04.224Z,33.77
2018-11-06T10:47:31.377Z,30.67
2018-11-06T10:49:58.562Z,34.60
2018-11-06T10:52:25.821Z,29.87
2018-11-06T10:54:52.992Z,29.33
2018-11-06T10:57:20.152Z,34.33
2018-11-06T10:59:47.326Z,35.03
2018-11-06T11:02:15.616Z,29.13
2018-11-06T11:04:42.807Z,23.33
2018-11-06T11:07:10.011Z,29.27
2018-11-06T11:09:37.205Z,23.97
2018-11-06T11:12:04.628Z,24.03
2018-11-06T11:14:31.773Z,22.13
2018-11-06T11:16:58.952Z,18.53
2018-11-06T11:19:26.120Z,21.57
2018-11-06T11:21:53.290Z,27.80
2018-11-06T11:24:20.456Z,17.87
2018-11-06T11:26:47.704Z,22.87
2018-11-06T11:29:14.881Z,17.70
2018-11-06T11:31:42.017Z,16.37
2018-11-06T11:34:09.188Z,20.67
2018-11-06T11:36:36.351Z,19.90
2018-11-06T11:39:05.048Z,14.20
2018-11-06T11:41:32.201Z,15.17
2018-11-06T11:43:59.390Z,18.97
2018-11-06T11:46:26.614Z,15.63
2018-11-06T11:48:53.825Z,16.40
2018-11-06T11:51:21.041Z,16.43
2018-11-06T11:53:48.213Z,16.07
2018-11-06T11:56:15.363Z,17.93
2018-11-06T11:58:42.534Z,17.27
2018-11-06T12:01:09.697Z,15.13
2018-11-06T12:03:36.843Z,13.57
2018-11-06T12:06:04.163Z,17.87
2018-11-06T12:08:31.313Z,13.50
2018-11-06T12:10:58.459Z,12.87
2018-11-06T12:13:25.633Z,11.70
2018-11-06T12:15:52.799Z,10.97
2018-11-06T12:18:19.985Z,12.07
2018-11-06T12:20:47.098Z,9.53
2018-11-06T12:23:14.281Z,14.13
2018-11-06T12:25:41.619Z,10.20
2018-11-06T12:28:08.744Z,13.23
2018-11-06T12:30:35.919Z,10.07
2018-11-06T12:33:03.264Z,14.60
2018-11-06T12:35:30.417Z,12.10
2018-11-06T12:37:57.635Z,11.23
2018-11-06T12:40:24.872Z,9.40
2018-11-06T12:42:52.064Z,11.27
2018-11-06T12:45:19.213Z,14.30
2018-11-06T12:47:46.713Z,9.07
2018-11-06T12:50:13.967Z,9.43
2018-11-06T12:52:41.451Z,13.17
2018-11-06T12:55:10.315Z,9.00
2018-11-06T12:57:37.562Z,13.23
2018-11-06T13:00:06.582Z,10.87
2018-11-06T13:02:33.721Z,11.10
2018-11-06T13:05:00.874Z,8.30
2018-11-06T13:07:28.039Z,16.10
2018-11-06T13:09:55.260Z,12.43
2018-11-06T13:12:22.495Z,10.13
2018-11-06T13:14:49.652Z,11.17
2018-11-06T13:17:16.820Z,8.53
2018-11-06T13:19:43.984Z,15.13
2018-11-06T13:22:11.144Z,10.00
2018-11-06T13:24:38.304Z,9.47
2018-11-06T13:27:05.489Z,13.47
2018-11-06T13:29:32.655Z,13.40
2018-11-06T13:31:59.846Z,9.40
2018-11-06T13:34:27.027Z,10.27
2018-11-06T13:36:54.216Z,11.40
2018-11-06T13:39:21.350Z,8.33
2018-11-06T13:41:48.489Z,9.50
2018-11-06T13:44:15.894Z,9.60
2018-11-06T13:46:42.828Z,8.63
2018-11-06T13:49:10.024Z,9.47
2018-11-06T13:51:37.207Z,8.87
2018-11-06T13:54:04.756Z,9.20
2018-11-06T13:56:31.908Z,11.90
2018-11-06T13:58:59.120Z,11.43
2018-11-06T14:01:26.280Z,9.93
2018-11-06T14:03:53.484Z,14.67
2018-11-06T14:06:20.668Z,8.70
2018-11-06T14:08:47.845Z,10.00
2018-11-06T14:11:15.017Z,8.30
2018-11-06T14:13:42.168Z,11.30
2018-11-06T14:16:09.327Z,10.23
2018-11-06T14:18:36.524Z,11.73
2018-11-06T14:21:04.025Z,10.87
2018-11-06T14:23:31.200Z,7.50
2018-11-06T14:25:58.368Z,9.30
2018-11-06T14:28:25.538Z,7.67
2018-11-06T14:30:52.708Z,8.50
2018-11-06T14:33:19.841Z,11.47
2018-11-06T14:35:47.028Z,8.50
2018-11-06T14:38:14.137Z,9.03
2018-11-06T14:40:41.336Z,9.10
2018-11-06T14:43:08.495Z,11.87
2018-11-06T14:45:35.652Z,12.67
2018-11-06T14:48:02.965Z,10.80
2018-11-06T14:50:30.016Z,11.80
2018-11-06T14:52:57.197Z,10.67
2018-11-06T14:55:24.378Z,11.63
2018-11-06T14:57:51.547Z,9.40
2018-11-06T15:00:19.787Z,7.13
2018-11-06T15:02:48.107Z,10.17
2018-11-06T15:05:16.057Z,10.17
2018-11-06T15:07:43.719Z,11.97
2018-11-06T15:10:11.472Z,10.17
2018-11-06T15:12:38.711Z,9.53
2018-11-06T15:15:06.829Z,9.37
2018-11-06T15:17:34.113Z,10.70
2018-11-06T15:20:01.592Z,11.93
2018-11-06T15:22:28.776Z,11.87
2018-11-06T15:24:55.940Z,9.17
2018-11-06T15:27:23.088Z,10.30
2018-11-06T15:29:50.255Z,9.00
2018-11-06T15:32:17.481Z,8.90
2018-11-06T15:34:44.585Z,8.73
2018-11-06T15:37:11.752Z,9.43
2018-11-06T15:39:38.929Z,10.93
2018-11-06T15:42:06.142Z,12.13
2018-11-06T15:44:33.348Z,12.23
2018-11-06T15:47:00.512Z,7.33
2018-11-06T15:49:27.667Z,12.93
2018-11-06T15:51:54.831Z,8.50
2018-11-06T15:54:22.020Z,11.10
2018-11-06T15:56:49.205Z,8.03
2018-11-06T15:59:16.355Z,15.50
2018-11-06T16:01:43.527Z,17.10
2018-11-06T16:04:10.676Z,12.80
2018-11-06T16:06:37.837Z,10.37
2018-11-06T16:09:06.169Z,9.83
2018-11-06T16:11:33.479Z,15.40
2018-11-06T16:14:00.665Z,17.93
2018-11-06T16:16:27.816Z,33.60
2018-11-06T16:18:54.996Z,34.23
2018-11-06T16:21:22.160Z,38.53
2018-11-06T16:23:49.351Z,15.90
2018-11-06T16:26:16.507Z,15.13
2018-11-06T16:28:43.651Z,8.57
2018-11-06T16:31:10.812Z,11.90
2018-11-06T16:33:37.952Z,12.40
2018-11-06T16:36:05.120Z,14.70
2018-11-06T16:38:32.274Z,14.17
2018-11-06T16:40:59.419Z,17.70
2018-11-06T16:43:26.620Z,11.57
2018-11-06T16:45:53.837Z,11.63
2018-11-06T16:48:21.020Z,11.93
2018-11-06T16:50:48.214Z,10.97
2018-11-06T16:53:15.387Z,14.97
2018-11-06T16:55:42.547Z,13.17
2018-11-06T16:58:09.709Z,12.43
2018-11-06T17:00:36.933Z,17.10
2018-11-06T17:03:04.078Z,13.13
2018-11-06T17:05:31.259Z,15.37
2018-11-06T17:07:58.431Z,19.37
2018-11-06T17:10:25.593Z,11.70
2018-11-06T17:12:52.759Z,12.63
2018-11-06T17:15:21.902Z,14.57
2018-11-06T17:17:50.194Z,16.67
2018-11-06T17:20:17.721Z,12.33
2018-11-06T17:22:44.929Z,12.43
2018-11-06T17:25:13.407Z,16.87
2018-11-06T17:27:40.573Z,16.00
2018-11-06T17:30:09.501Z,16.53
2018-11-06T17:32:37.623Z,18.30
2018-11-06T17:35:05.824Z,20.77
2018-11-06T17:37:32.997Z,13.53
2018-11-06T17:40:00.169Z,10.53
2018-11-06T17:42:27.347Z,11.50
2018-11-06T17:44:54.529Z,11.93
2018-11-06T17:47:21.693Z,12.50
2018-11-06T17:49:48.843Z,10.57
2018-11-06T17:52:16.059Z,11.20
2018-11-06T17:54:43.212Z,11.50
2018-11-06T17:57:10.358Z,13.27
2018-11-06T17:59:37.525Z,12.53
2018-11-06T18:02:05.014Z,14.30
2018-11-06T18:04:32.306Z,12.77
2018-11-06T18:06:59.315Z,11.37
2018-11-06T18:09:26.496Z,16.17
2018-11-06T18:11:53.665Z,14.30
2018-11-06T18:14:20.815Z,13.60
2018-11-06T18:16:47.966Z,14.87
2018-11-06T18:19:15.138Z,14.00
2018-11-06T18:21:42.287Z,17.30
2018-11-06T18:24:09.446Z,15.33
2018-11-06T18:26:36.652Z,17.80
2018-11-06T18:29:04.180Z,13.03
2018-11-06T18:31:31.323Z,12.80
2018-11-06T18:33:58.487Z,11.40
2018-11-06T18:36:25.636Z,15.10
2018-11-06T18:38:52.948Z,12.83
2018-11-06T18:41:20.118Z,12.27
2018-11-06T18:43:47.283Z,12.17
2018-11-06T18:46:14.464Z,14.57
2018-11-06T18:48:41.608Z,11.90
2018-11-06T18:51:08.795Z,16.63
2018-11-06T18:53:36.096Z,15.80
2018-11-06T18:56:03.268Z,13.90
2018-11-06T18:58:30.512Z,19.10
2018-11-06T19:00:57.613Z,14.53
2018-11-06T19:03:24.783Z,15.60
2018-11-06T19:05:51.952Z,13.33
2018-11-06T19:08:19.115Z,13.77
2018-11-06T19:10:46.352Z,13.30
2018-11-06T19:13:13.442Z,12.87
2018-11-06T19:15:40.603Z,18.47
2018-11-06T19:18:07.767Z,17.13
2018-11-06T19:20:34.944Z,16.43
2018-11-06T19:23:02.116Z,17.80
2018-11-06T19:25:29.259Z,17.80
2018-11-06T19:27:56.455Z,22.17
2018-11-06T19:30:23.647Z,21.97
2018-11-06T19:32:51.340Z,16.80
2018-11-06T19:35:18.547Z,19.93
2018-11-06T19:37:45.716Z,16.23
2018-11-06T19:40:14.246Z,19.37
2018-11-06T19:42:42.099Z,18.37
2018-11-06T19:45:09.953Z,22.43
2018-11-06T19:47:37.150Z,23.30
2018-11-06T19:50:05.483Z,17.83
2018-11-06T19:52:32.631Z,18.60
2018-11-06T19:54:59.969Z,25.43
2018-11-06T19:57:27.120Z,26.33
2018-11-06T19:59:54.262Z,20.83
2018-11-06T20:02:21.557Z,22.77
2018-11-06T20:04:48.663Z,21.17
2018-11-06T20:07:15.828Z,23.77
2018-11-06T20:09:43.058Z,23.67
2018-11-06T20:12:10.267Z,23.43
2018-11-06T20:14:37.368Z,27.67
2018-11-06T20:17:04.565Z,22.50
2018-11-06T20:19:31.753Z,22.73
2018-11-06T20:21:58.892Z,24.73
2018-11-06T20:24:26.072Z,22.40
2018-11-06T20:26:53.240Z,19.77
2018-11-06T20:29:20.427Z,18.87
2018-11-06T20:31:47.613Z,22.63
2018-11-06T20:34:14.765Z,25.47
2018-11-06T20:36:41.932Z,23.93
2018-11-06T20:39:09.843Z,28.83
2018-11-06T20:41:37.096Z,25.00
2018-11-06T20:44:04.271Z,28.03
2018-11-06T20:46:32.007Z,26.73
2018-11-06T20:48:59.256Z,29.77
2018-11-06T20:51:26.366Z,27.87
2018-11-06T20:53:53.559Z,22.77
2018-11-06T20:56:20.764Z,32.53
2018-11-06T20:58:47.944Z,26.57
2018-11-06T21:01:15.160Z,25.10
2018-11-06T21:03:42.362Z,26.13
2018-11-06T21:06:09.590Z,26.47
2018-11-06T21:08:36.773Z,33.43
2018-11-06T21:11:04.237Z,30.53
2018-11-06T21:13:31.448Z,30.70
2018-11-06T21:15:58.644Z,28.23
2018-11-06T21:18:25.905Z,33.97
2018-11-06T21:20:53.112Z,31.17
2018-11-06T21:23:20.300Z,33.83
2018-11-06T21:25:47.679Z,30.97
2018-11-06T21:28:14.667Z,31.83
2018-11-06T21:30:41.828Z,34.17
2018-11-06T21:33:08.988Z,30.60
2018-11-06T21:35:36.200Z,32.40
2018-11-06T21:38:03.390Z,36.53
2018-11-06T21:40:30.559Z,35.50
2018-11-06T21:42:57.701Z,36.97
2018-11-06T21:45:24.905Z,33.20
2018-11-06T21:47:52.020Z,40.17
2018-11-06T21:50:19.572Z,34.63
2018-11-06T21:52:46.823Z,42.07
2018-11-06T21:55:15.203Z,38.43
2018-11-06T21:57:42.467Z,34.27
2018-11-06T22:00:14.389Z,40.33
2018-11-06T22:02:41.511Z,37.30
2018-11-06T22:05:10.251Z,35.50
2018-11-06T22:07:37.609Z,40.57
2018-11-06T22:10:06.056Z,43.00
2018-11-06T22:12:33.274Z,46.47
2018-11-06T22:15:00.447Z,42.07
2018-11-06T22:17:27.612Z,37.53
2018-11-06T22:19:54.768Z,43.47
2018-11-06T22:22:22.016Z,42.97
2018-11-06T22:24:49.100Z,40.53
2018-11-06T22:27:16.317Z,44.07
2018-11-06T22:29:43.427Z,41.90
2018-11-06T22:32:10.673Z,47.80
2018-11-06T22:34:37.840Z,48.20
2018-11-06T22:37:05.129Z,41.67
2018-11-06T22:39:32.227Z,47.50
2018-11-06T22:41:59.395Z,39.67
2018-11-06T22:44:26.552Z,38.33
2018-11-06T22:46:53.778Z,43.93
2018-11-06T22:49:21.024Z,43.47
2018-11-06T22:51:48.184Z,46.10
2018-11-06T22:54:15.359Z,39.90
2018-11-06T22:56:42.655Z,40.97
2018-11-06T22:59:09.838Z,45.27
2018-11-06T23:01:37.038Z,38.33
2018-11-06T23:04:04.223Z,51.20
2018-11-06T23:06:31.419Z,40.50
2018-11-06T23:08:59.001Z,42.77
2018-11-06T23:11:26.157Z,51.10
2018-11-06T23:13:53.646Z,45.63
2018-11-06T23:16:20.904Z,45.17
2018-11-06T23:18:48.681Z,43.83
2018-11-06T23:21:17.098Z,48.10
2018-11-06T23:23:44.273Z,49.70
2018-11-06T23:26:11.524Z,46.77
2018-11-06T23:28:38.668Z,37.77
2018-11-06T23:31:05.818Z,58.93
2018-11-06T23:33:32.984Z,76.50
2018-11-06T23:36:00.138Z,43.47
2018-11-06T23:38:27.328Z,87.37
2018-11-06T23:40:54.487Z,72.93
2018-11-06T23:43:24.519Z,67.03
2018-11-06T23:45:51.945Z,104.27
2018-11-06T23:48:19.107Z,66.80
2018-11-06T23:50:46.273Z,75.33
2018-11-06T23:53:13.445Z,46.90
2018-11-06T23:55:40.600Z,42.37
2018-11-06T23:58:07.780Z,99.80
